Time;durP1;ratioP1;P1;durP2;ratioP2;P2;SDS_P1;SDS_P2;PMS_P1;PMS_P2;Temp;Humidity;BMP_temperature;BMP_pressure;BME280_temperature;BME280_humidity;BME280_pressure;Samples;Min_cycle;Max_cycle;Signal;HPM_P1;HPM_P2
2021/11/05 00:00:13;;;;;;;9.68;4.08;;;;;;;7.35;74.88;99488.45;1749428;82;25673;-62
2021/11/05 00:02:42;;;;;;;7.15;3.65;;;;;;;7.35;74.91;99479.05;1780442;80;25680;-61
2021/11/05 00:05:09;;;;;;;7.05;3.92;;;;;;;7.36;74.78;99481.20;1749425;81;27309;-61
2021/11/05 00:07:37;;;;;;;6.92;3.83;;;;;;;7.37;74.79;99497.58;1780334;80;25605;-61
2021/11/05 00:10:06;;;;;;;7.12;4.05;;;;;;;7.40;74.79;99493.72;1749340;81;25627;-61
2021/11/05 00:12:33;;;;;;;5.50;3.60;;;;;;;7.40;74.70;99487.55;1780575;80;25619;-61
2021/11/05 00:15:00;;;;;;;6.45;3.77;;;;;;;7.39;74.56;99508.28;1749496;81;25627;-62
2021/11/05 00:17:26;;;;;;;5.37;3.67;;;;;;;7.37;74.48;99515.06;1780341;80;27300;-61
2021/11/05 00:19:53;;;;;;;5.17;3.30;;;;;;;7.36;74.54;99502.16;1749427;82;25701;-62
2021/11/05 00:22:19;;;;;;;6.90;4.22;;;;;;;7.36;74.57;99512.93;1780424;80;25643;-62
2021/11/05 00:24:45;;;;;;;7.17;3.40;;;;;;;7.36;74.51;99506.77;1739732;81;25617;-62
2021/11/05 00:27:12;;;;;;;7.17;3.67;;;;;;;7.37;74.52;99512.38;1758507;81;25594;-62
2021/11/05 00:29:41;;;;;;;5.00;3.30;;;;;;;7.36;74.41;99522.91;1780444;80;25753;-61
2021/11/05 00:32:09;;;;;;;7.08;4.03;;;;;;;7.35;74.40;99510.55;1752573;81;27110;-61
2021/11/05 00:34:35;;;;;;;6.87;3.55;;;;;;;7.33;74.40;99510.84;1780468;80;25581;-62
2021/11/05 00:37:02;;;;;;;5.97;3.72;;;;;;;7.33;74.45;99512.75;1780289;80;25625;-62
2021/11/05 00:39:28;;;;;;;5.35;3.90;;;;;;;7.33;74.41;99522.95;1780352;80;25736;-62
2021/11/05 00:41:56;;;;;;;5.58;3.50;;;;;;;7.34;74.29;99521.05;1749402;82;29540;-61
2021/11/05 00:44:23;;;;;;;5.80;3.25;;;;;;;7.35;74.25;99530.16;1780352;80;25425;-61
2021/11/05 00:46:50;;;;;;;6.20;3.80;;;;;;;7.37;74.21;99534.70;1749351;82;25422;-61
2021/11/05 00:49:16;;;;;;;5.00;3.33;;;;;;;7.37;74.09;99537.40;1781950;79;26289;-63
2021/11/05 00:51:43;;;;;;;7.12;3.47;;;;;;;7.36;74.02;99545.22;1757813;81;25649;-61
2021/11/05 00:54:11;;;;;;;6.80;3.37;;;;;;;7.35;74.01;99528.81;1788820;80;27318;-62
2021/11/05 00:56:38;;;;;;;3.95;2.90;;;;;;;7.36;73.98;99532.32;1788962;80;25646;-62
2021/11/05 00:59:04;;;;;;;5.58;3.22;;;;;;;7.36;73.90;99544.43;1757668;81;25558;-62
2021/11/05 01:01:31;;;;;;;5.85;3.20;;;;;;;7.34;73.89;99536.66;1788850;80;25459;-62
2021/11/05 01:03:57;;;;;;;6.47;3.45;;;;;;;7.35;73.80;99537.45;1757821;81;25413;-61
2021/11/05 01:06:23;;;;;;;5.75;3.08;;;;;;;7.33;73.77;99541.78;1789078;80;29471;-62
2021/11/05 01:08:50;;;;;;;4.17;3.00;;;;;;;7.33;73.79;99537.75;1757550;81;25706;-62
2021/11/05 01:11:16;;;;;;;4.62;2.90;;;;;;;7.32;73.75;99548.28;1788998;80;26159;-61
2021/11/05 01:13:43;;;;;;;5.58;3.10;;;;;;;7.33;73.71;99549.86;1757805;81;25539;-62
2021/11/05 01:16:10;;;;;;;4.58;3.05;;;;;;;7.34;73.70;99550.11;1788820;80;25691;-61
2021/11/05 01:18:36;;;;;;;5.70;2.92;;;;;;;7.35;73.64;99557.63;1757905;81;26690;-61
2021/11/05 01:21:03;;;;;;;3.55;2.55;;;;;;;7.34;73.58;99551.45;1788944;80;25562;-61
2021/11/05 01:23:30;;;;;;;4.28;2.98;;;;;;;7.34;73.57;99548.77;1788853;80;25544;-61
2021/11/05 01:25:57;;;;;;;3.58;2.65;;;;;;;7.35;73.43;99560.31;1757655;81;25771;-63
2021/11/05 01:28:24;;;;;;;4.55;3.10;;;;;;;7.36;73.46;99555.98;1789001;80;25628;-62
2021/11/05 01:30:50;;;;;;;5.87;2.80;;;;;;;7.33;73.44;99555.23;1757709;81;27505;-62
2021/11/05 01:33:18;;;;;;;4.55;2.55;;;;;;;7.33;73.35;99557.92;1788841;80;25754;-62
2021/11/05 01:35:46;;;;;;;4.50;3.12;;;;;;;7.35;73.30;99560.31;1757797;81;25666;-61
2021/11/05 01:38:12;;;;;;;2.60;2.40;;;;;;;7.35;73.28;99551.68;1788867;80;26166;-61
2021/11/05 01:40:42;;;;;;;4.72;2.80;;;;;;;7.35;73.11;99564.34;1757739;81;25450;-61
2021/11/05 01:43:10;;;;;;;7.35;2.55;;;;;;;7.36;73.14;99568.64;1789029;80;27839;-62
2021/11/05 01:45:40;;;;;;;4.80;2.80;;;;;;;7.36;73.06;99565.95;1789283;80;25555;-62
2021/11/05 01:48:07;;;;;;;3.72;2.25;;;;;;;7.37;72.93;99560.80;1789179;80;25586;-62
2021/11/05 01:50:34;;;;;;;4.03;2.92;;;;;;;7.37;72.92;99566.18;1750372;81;25684;-62
2021/11/05 01:53:01;;;;;;;3.85;3.15;;;;;;;7.37;72.99;99568.34;1775699;80;25649;-61
2021/11/05 01:55:28;;;;;;;4.67;2.40;;;;;;;7.39;72.90;99560.75;1775882;80;27907;-61
2021/11/05 01:57:55;;;;;;;2.83;2.30;;;;;;;7.40;72.66;99558.84;1775718;80;25704;-62
2021/11/05 02:00:26;;;;;;;3.52;2.60;;;;;;;7.43;72.64;99560.38;1775780;80;25596;-61
2021/11/05 02:02:54;;;;;;;5.35;2.60;;;;;;;7.44;72.42;99561.98;1775779;80;25696;-62
2021/11/05 02:05:21;;;;;;;4.33;2.58;;;;;;;7.46;72.55;99564.36;1775828;80;25698;-61
2021/11/05 02:07:52;;;;;;;4.05;2.58;;;;;;;7.47;72.51;99561.38;1775736;80;27318;-61
2021/11/05 02:10:21;;;;;;;3.15;2.37;;;;;;;7.49;72.40;99567.77;1775817;80;25649;-61
2021/11/05 02:12:51;;;;;;;4.10;3.08;;;;;;;7.52;72.18;99573.89;1775849;80;25603;-62
2021/11/05 02:15:18;;;;;;;3.70;2.50;;;;;;;7.54;72.21;99566.30;1775680;80;25670;-62
2021/11/05 02:17:46;;;;;;;2.92;2.62;;;;;;;7.56;72.16;99584.30;1775863;80;25679;-62
2021/11/05 02:20:18;;;;;;;4.07;2.57;;;;;;;7.58;72.18;99572.67;1776046;80;27376;-62
2021/11/05 02:22:45;;;;;;;3.05;2.37;;;;;;;7.60;71.99;99579.10;1749415;80;25542;-61
2021/11/05 02:25:13;;;;;;;3.77;2.50;;;;;;;7.62;71.96;99582.28;1775750;80;25584;-61
2021/11/05 02:27:40;;;;;;;3.33;2.27;;;;;;;7.63;71.43;99600.03;1775777;80;25696;-62
2021/11/05 02:30:10;;;;;;;4.25;2.52;;;;;;;7.64;71.54;99576.84;1775665;80;25480;-61
2021/11/05 02:32:38;;;;;;;3.02;2.47;;;;;;;7.65;71.09;99601.86;1775867;80;27382;-62
2021/11/05 02:35:06;;;;;;;4.45;2.47;;;;;;;7.64;71.36;99583.58;1775692;80;25449;-62
2021/11/05 02:37:33;;;;;;;3.20;2.60;;;;;;;7.64;71.32;99578.72;1775723;80;25607;-61
2021/11/05 02:39:59;;;;;;;5.75;2.65;;;;;;;7.63;71.37;99573.11;1775787;80;25666;-61
2021/11/05 02:42:26;;;;;;;6.30;2.95;;;;;;;7.63;71.36;99582.53;1775857;80;25606;-62
2021/11/05 02:44:53;;;;;;;2.35;2.00;;;;;;;7.62;71.25;99584.97;1775675;80;27394;-62
2021/11/05 02:47:25;;;;;;;2.83;2.30;;;;;;;7.63;71.04;99587.91;1775709;80;25653;-62
2021/11/05 02:49:54;;;;;;;2.92;2.30;;;;;;;7.65;70.95;99594.56;1776996;80;25695;-62
2021/11/05 02:52:21;;;;;;;3.83;2.33;;;;;;;7.69;71.12;99587.23;1786081;80;25657;-62
2021/11/05 02:54:48;;;;;;;4.28;2.60;;;;;;;7.71;70.94;99594.45;1786058;80;25535;-62
2021/11/05 02:57:15;;;;;;;3.42;2.27;;;;;;;7.72;70.97;99593.36;1785986;80;27357;-61
2021/11/05 02:59:42;;;;;;;2.77;2.25;;;;;;;7.74;70.92;99584.41;1785816;80;25437;-62
2021/11/05 03:02:09;;;;;;;6.00;2.33;;;;;;;7.74;70.76;99590.59;1785976;80;25459;-62
2021/11/05 03:04:37;;;;;;;3.25;2.20;;;;;;;7.75;70.64;99594.09;1785988;80;25666;-61
2021/11/05 03:07:08;;;;;;;3.70;2.45;;;;;;;7.76;70.51;99587.59;1785867;80;25634;-62
2021/11/05 03:09:39;;;;;;;4.47;2.35;;;;;;;7.74;70.40;99593.27;1786056;80;27371;-61
2021/11/05 03:12:09;;;;;;;2.65;2.40;;;;;;;7.77;70.58;99620.15;1785920;80;25699;-61
2021/11/05 03:14:37;;;;;;;2.87;2.27;;;;;;;7.77;70.35;99604.78;1785925;80;25738;-62
2021/11/05 03:17:06;;;;;;;4.95;2.27;;;;;;;7.79;70.64;99604.48;1786044;80;25665;-63
2021/11/05 03:19:33;;;;;;;2.52;2.12;;;;;;;7.80;70.54;99611.47;1786134;80;25637;-62
2021/11/05 03:22:00;;;;;;;2.58;2.25;;;;;;;7.81;70.39;99615.17;1785818;80;28024;-62
2021/11/05 03:24:26;;;;;;;4.87;2.35;;;;;;;7.82;70.29;99620.03;1785984;80;25757;-60
2021/11/05 03:26:53;;;;;;;2.75;2.20;;;;;;;7.84;70.29;99629.94;1785975;80;25765;-61
2021/11/05 03:29:20;;;;;;;3.02;2.52;;;;;;;7.83;70.15;99621.07;1785741;80;26040;-62
2021/11/05 03:31:47;;;;;;;2.85;2.22;;;;;;;7.85;69.94;99632.88;1786026;80;25676;-62
2021/11/05 03:34:13;;;;;;;4.78;2.10;;;;;;;7.85;70.29;99624.25;1785927;80;29487;-62
2021/11/05 03:36:40;;;;;;;3.22;2.10;;;;;;;7.88;70.29;99623.38;1785833;80;27172;-61
2021/11/05 03:39:06;;;;;;;3.33;2.27;;;;;;;7.87;70.08;99626.63;1785902;80;25618;-61
2021/11/05 03:41:34;;;;;;;5.47;2.02;;;;;;;7.89;69.98;99630.38;1785995;80;25657;-61
2021/11/05 03:44:00;;;;;;;3.55;1.98;;;;;;;7.88;70.01;99612.05;1785892;80;25586;-62
2021/11/05 03:46:27;;;;;;;3.20;2.30;;;;;;;7.89;70.08;99626.33;1785997;80;27273;-61
2021/11/05 03:48:55;;;;;;;2.37;2.17;;;;;;;7.89;70.07;99623.64;1785770;80;25602;-61
2021/11/05 03:51:21;;;;;;;6.40;2.30;;;;;;;7.89;69.64;99631.72;1785895;80;25551;-60
2021/11/05 03:53:48;;;;;;;2.67;2.22;;;;;;;7.88;69.85;99616.09;1785874;80;25575;-61
2021/11/05 03:56:15;;;;;;;3.50;2.37;;;;;;;7.88;69.85;99632.25;1785993;80;25418;-62
2021/11/05 03:58:41;;;;;;;3.77;2.40;;;;;;;7.88;69.69;99641.67;1785891;80;27500;-62
2021/11/05 04:01:08;;;;;;;2.83;2.22;;;;;;;7.86;69.71;99648.70;1785706;80;25654;-61
2021/11/05 04:03:34;;;;;;;3.45;2.17;;;;;;;7.87;69.76;99648.17;1785965;80;25602;-61
2021/11/05 04:06:01;;;;;;;4.25;2.50;;;;;;;7.84;69.79;99660.90;1785783;80;25762;-61
2021/11/05 04:08:28;;;;;;;2.90;2.20;;;;;;;7.84;69.79;99654.16;1785857;80;25390;-61
2021/11/05 04:10:56;;;;;;;3.12;2.22;;;;;;;7.85;69.79;99666.54;1785998;80;27377;-61
2021/11/05 04:13:22;;;;;;;4.28;2.85;;;;;;;7.84;69.76;99664.94;1785912;80;26358;-61
2021/11/05 04:15:49;;;;;;;2.65;2.12;;;;;;;7.82;69.82;99665.80;1785806;80;25526;-61
2021/11/05 04:18:16;;;;;;;3.22;2.45;;;;;;;7.82;69.83;99673.31;1785947;80;25550;-61
2021/11/05 04:20:42;;;;;;;3.47;2.30;;;;;;;7.81;69.68;99674.41;1785947;80;25402;-61
2021/11/05 04:23:08;;;;;;;4.30;2.92;;;;;;;7.80;69.50;99676.08;1785781;80;27449;-61
2021/11/05 04:25:36;;;;;;;2.52;2.33;;;;;;;7.79;69.46;99683.91;1785918;80;25721;-61
2021/11/05 04:28:04;;;;;;;3.62;2.30;;;;;;;7.77;69.72;99684.20;1785848;80;25746;-61
2021/11/05 04:30:30;;;;;;;3.95;2.60;;;;;;;7.76;69.75;99686.64;1785799;80;25676;-61
2021/11/05 04:32:57;;;;;;;2.60;2.20;;;;;;;7.75;69.75;99698.53;1785925;80;25587;-61
2021/11/05 04:35:23;;;;;;;4.85;2.58;;;;;;;7.75;69.75;99697.18;1785957;80;28055;-61
2021/11/05 04:37:49;;;;;;;2.72;2.02;;;;;;;7.75;69.82;99697.18;1785722;80;25967;-61
2021/11/05 04:40:16;;;;;;;3.67;2.70;;;;;;;7.74;69.88;99700.96;1785853;80;25679;-61
2021/11/05 04:42:42;;;;;;;3.22;2.67;;;;;;;7.73;69.87;99699.39;1785907;80;25614;-61
2021/11/05 04:45:09;;;;;;;3.25;2.45;;;;;;;7.73;69.87;99726.31;1785745;80;25594;-62
2021/11/05 04:47:37;;;;;;;3.42;2.55;;;;;;;7.75;69.81;99721.97;1785997;80;27256;-62
2021/11/05 04:50:06;;;;;;;3.40;2.37;;;;;;;7.73;69.88;99714.20;1785812;80;25698;-62
2021/11/05 04:52:32;;;;;;;3.03;2.43;;;;;;;7.74;69.81;99718.46;1780813;80;25651;-62
2021/11/05 04:54:58;;;;;;;2.65;2.25;;;;;;;7.75;69.82;99726.01;1780337;80;26298;-62
2021/11/05 04:57:25;;;;;;;2.92;2.20;;;;;;;7.76;69.86;99732.97;1780392;80;25730;-62
2021/11/05 04:59:52;;;;;;;2.60;2.35;;;;;;;7.75;69.76;99730.05;1749314;82;29478;-62
2021/11/05 05:02:19;;;;;;;3.92;2.47;;;;;;;7.76;69.81;99749.13;1780339;80;25691;-62
2021/11/05 05:04:46;;;;;;;3.70;2.35;;;;;;;7.76;69.69;99737.79;1749469;81;25627;-62
2021/11/05 05:07:14;;;;;;;6.45;2.50;;;;;;;7.77;69.69;99729.19;1780230;80;25494;-62
2021/11/05 05:09:41;;;;;;;3.55;2.33;;;;;;;7.76;69.68;99732.41;1749503;81;25618;-62
2021/11/05 05:12:09;;;;;;;4.10;2.37;;;;;;;7.76;69.67;99741.05;1780357;80;27279;-62
2021/11/05 05:14:35;;;;;;;2.67;2.02;;;;;;;7.77;69.75;99746.69;1749341;81;25923;-62
2021/11/05 05:17:02;;;;;;;4.53;2.70;;;;;;;7.76;69.75;99743.73;1780346;80;25477;-61
2021/11/05 05:19:28;;;;;;;3.77;2.33;;;;;;;7.79;69.66;99756.59;1749674;81;25755;-61
2021/11/05 05:21:54;;;;;;;4.83;2.20;;;;;;;7.79;69.58;99745.83;1780421;80;25739;-59
2021/11/05 05:24:21;;;;;;;4.40;2.47;;;;;;;7.77;69.66;99752.86;1780558;80;27303;-60
2021/11/05 05:26:47;;;;;;;5.50;2.55;;;;;;;7.75;69.69;99752.37;1780417;80;25644;-62
2021/11/05 05:29:14;;;;;;;3.55;2.75;;;;;;;7.77;69.79;99758.80;1780408;80;25591;-61
2021/11/05 05:31:41;;;;;;;6.12;2.58;;;;;;;7.76;69.59;99766.06;1780407;80;25724;-61
2021/11/05 05:34:07;;;;;;;4.17;2.87;;;;;;;7.76;69.60;99765.27;1749613;82;25453;-61
2021/11/05 05:36:35;;;;;;;5.90;2.58;;;;;;;7.75;69.69;99767.73;1780470;80;27297;-62
2021/11/05 05:39:04;;;;;;;4.35;2.70;;;;;;;7.75;69.53;99794.66;1780405;80;25614;-62
2021/11/05 05:41:30;;;;;;;2.90;2.47;;;;;;;7.75;69.59;99796.00;1780854;80;25713;-62
2021/11/05 05:43:57;;;;;;;4.47;2.65;;;;;;;7.74;69.59;99796.53;1780258;80;26338;-61
2021/11/05 05:46:23;;;;;;;6.22;2.65;;;;;;;7.75;69.70;99803.52;1780534;80;25426;-61
2021/11/05 05:48:50;;;;;;;3.60;2.60;;;;;;;7.75;69.54;99805.43;1780473;80;27327;-62
2021/11/05 05:51:17;;;;;;;5.83;2.90;;;;;;;7.76;69.77;99805.09;1780162;80;25610;-61
2021/11/05 05:53:45;;;;;;;5.22;3.25;;;;;;;7.77;69.47;99810.74;1749715;82;25629;-61
2021/11/05 05:56:11;;;;;;;2.87;2.35;;;;;;;7.77;69.54;99804.02;1780025;80;25633;-61
2021/11/05 05:58:37;;;;;;;6.00;2.77;;;;;;;7.77;69.49;99811.30;1780000;80;25632;-61
2021/11/05 06:01:05;;;;;;;4.28;2.70;;;;;;;7.79;69.58;99830.64;1780497;80;27403;-61
2021/11/05 06:03:32;;;;;;;4.10;2.62;;;;;;;7.79;69.46;99830.08;1780453;80;25758;-60
2021/11/05 06:05:58;;;;;;;6.87;3.20;;;;;;;7.79;69.38;99832.77;1780362;80;25567;-62
2021/11/05 06:08:25;;;;;;;4.12;3.30;;;;;;;7.81;69.47;99831.13;1780439;80;25830;-62
2021/11/05 06:10:53;;;;;;;3.22;2.70;;;;;;;7.82;69.46;99844.84;1749574;82;25651;-61
2021/11/05 06:13:20;;;;;;;5.03;2.83;;;;;;;7.83;69.41;99839.16;1780368;80;27379;-63
2021/11/05 06:15:46;;;;;;;8.43;3.20;;;;;;;7.84;69.51;99841.30;1750002;80;25407;-61
2021/11/05 06:18:13;;;;;;;5.10;3.50;;;;;;;7.85;69.25;99845.59;1749556;81;25589;-61
2021/11/05 06:20:40;;;;;;;3.52;3.12;;;;;;;7.85;69.30;99858.50;1780402;80;25772;-59
2021/11/05 06:23:07;;;;;;;4.35;2.85;;;;;;;7.86;69.27;99868.16;1749605;81;25393;-61
2021/11/05 06:25:33;;;;;;;4.33;2.90;;;;;;;7.87;69.34;99862.25;1775812;80;27724;-60
2021/11/05 06:28:00;;;;;;;4.00;3.12;;;;;;;7.86;68.98;99874.10;1749272;82;27154;-60
2021/11/05 06:30:27;;;;;;;3.80;3.25;;;;;;;7.87;69.20;99868.98;1780451;80;25444;-60
2021/11/05 06:32:53;;;;;;;4.45;3.27;;;;;;;7.88;69.23;99871.91;1749482;82;27729;-62
2021/11/05 06:35:20;;;;;;;5.40;3.45;;;;;;;7.88;69.19;99870.55;1780376;80;25608;-60
2021/11/05 06:37:46;;;;;;;6.17;3.27;;;;;;;7.86;68.85;99875.45;1749581;81;27614;-59
2021/11/05 06:40:13;;;;;;;5.15;3.25;;;;;;;7.87;68.93;99878.41;1780379;80;25675;-60
2021/11/05 06:42:40;;;;;;;3.90;2.92;;;;;;;7.86;68.95;99883.53;1749534;81;25608;-62
2021/11/05 06:45:09;;;;;;;4.90;3.52;;;;;;;7.87;69.05;99885.14;1780367;80;25702;-61
2021/11/05 06:47:37;;;;;;;4.12;3.58;;;;;;;7.84;68.91;99877.09;1780692;80;25686;-61
2021/11/05 06:50:06;;;;;;;5.75;3.60;;;;;;;7.85;68.95;99881.39;1749355;82;27319;-61
2021/11/05 06:52:34;;;;;;;6.78;3.50;;;;;;;7.85;69.10;99897.55;1759642;80;25645;-61
2021/11/05 06:55:04;;;;;;;3.90;3.50;;;;;;;7.84;68.86;99891.91;1748702;82;25406;-65
2021/11/05 06:57:32;;;;;;;4.58;3.87;;;;;;;7.83;69.04;99906.48;1748701;82;25621;-61
2021/11/05 06:59:58;;;;;;;4.12;3.30;;;;;;;7.83;69.01;99907.02;1725917;82;25481;-60
2021/11/05 07:02:25;;;;;;;5.17;3.60;;;;;;;7.82;68.97;99909.47;1734931;82;27364;-60
2021/11/05 07:04:52;;;;;;;4.90;3.70;;;;;;;7.82;68.79;99918.89;1720800;82;25683;-60
2021/11/05 07:07:18;;;;;;;5.12;3.58;;;;;;;7.81;68.81;99914.59;1720932;83;25670;-61
2021/11/05 07:09:46;;;;;;;4.17;3.55;;;;;;;7.82;68.94;99922.38;1720919;83;25818;-61
2021/11/05 07:12:13;;;;;;;5.00;3.98;;;;;;;7.81;68.96;99920.77;1720707;83;25617;-59
2021/11/05 07:14:40;;;;;;;6.55;3.42;;;;;;;7.81;68.88;99908.66;1720922;83;27307;-60
2021/11/05 07:17:07;;;;;;;5.40;3.72;;;;;;;7.81;68.97;99936.92;1720355;82;25745;-60
2021/11/05 07:19:33;;;;;;;6.85;3.50;;;;;;;7.80;68.92;99925.92;1726258;83;25703;-60
2021/11/05 07:22:02;;;;;;;5.05;3.45;;;;;;;7.81;69.02;99924.81;1726185;83;25664;-60
2021/11/05 07:24:29;;;;;;;6.25;3.58;;;;;;;7.81;69.02;99930.19;1726679;82;25746;-60
2021/11/05 07:26:57;;;;;;;6.97;3.77;;;;;;;7.83;69.09;99925.86;1718255;83;27399;-61
2021/11/05 07:29:26;;;;;;;4.72;3.52;;;;;;;7.85;68.77;99939.84;1725070;83;25418;-61
2021/11/05 07:31:59;;;;;;;4.53;3.58;;;;;;;7.85;68.88;99933.11;1722373;83;25655;-60
2021/11/05 07:34:32;;;;;;;6.03;3.70;;;;;;;7.85;68.90;99950.62;1722097;83;25684;-60
2021/11/05 07:37:02;;;;;;;6.72;4.15;;;;;;;7.84;68.83;99945.76;1722117;83;25707;-59
2021/11/05 07:39:29;;;;;;;8.25;4.05;;;;;;;7.85;68.71;99951.41;1721885;82;27313;-59
2021/11/05 07:41:57;;;;;;;5.67;3.70;;;;;;;7.86;68.86;99948.16;1721992;83;25855;-60
2021/11/05 07:44:23;;;;;;;3.80;3.12;;;;;;;7.87;68.92;99959.19;1722133;83;25853;-60
2021/11/05 07:46:50;;;;;;;5.33;3.70;;;;;;;7.89;68.70;99951.60;1721986;83;25692;-60
2021/11/05 07:49:17;;;;;;;6.65;3.75;;;;;;;7.89;68.93;99959.68;1721935;83;25700;-61
2021/11/05 07:51:45;;;;;;;5.62;3.92;;;;;;;7.90;68.85;99957.25;1722361;81;27317;-61
2021/11/05 07:54:12;;;;;;;4.40;3.75;;;;;;;7.91;68.82;99965.56;1723834;83;25655;-62
2021/11/05 07:56:39;;;;;;;6.37;3.83;;;;;;;7.92;68.66;99973.11;1719954;83;25721;-61
2021/11/05 07:59:07;;;;;;;7.10;3.72;;;;;;;7.94;68.70;99964.18;1725341;83;27848;-61
2021/11/05 08:01:34;;;;;;;6.00;3.67;;;;;;;7.95;68.74;99980.05;1712053;83;25668;-58
2021/11/05 08:04:00;;;;;;;7.37;4.45;;;;;;;7.95;68.59;99980.05;1744132;81;27380;-61
2021/11/05 08:06:27;;;;;;;7.00;4.05;;;;;;;7.98;68.66;99990.75;1723442;83;25735;-60
2021/11/05 08:08:53;;;;;;;6.10;3.80;;;;;;;8.01;68.43;99982.08;1722960;83;25780;-61
2021/11/05 08:11:20;;;;;;;6.03;3.70;;;;;;;8.22;69.09;99983.81;1723789;83;25738;-61
2021/11/05 08:13:46;;;;;;;5.92;3.80;;;;;;;8.57;69.06;99980.17;1724041;83;26129;-62
2021/11/05 08:16:13;;;;;;;7.75;3.45;;;;;;;9.08;68.71;99973.61;1723956;83;27402;-62
2021/11/05 08:18:39;;;;;;;9.98;4.12;;;;;;;9.64;66.61;99963.87;1723901;83;25675;-62
2021/11/05 08:21:06;;;;;;;4.58;3.77;;;;;;;10.22;65.31;99962.80;1723825;83;25664;-62
2021/11/05 08:23:34;;;;;;;8.80;3.80;;;;;;;10.59;62.86;99962.03;1723966;83;25550;-62
2021/11/05 08:26:01;;;;;;;6.00;3.55;;;;;;;10.72;62.97;99973.80;1723817;83;25471;-61
2021/11/05 08:28:28;;;;;;;5.33;3.67;;;;;;;10.73;61.77;99984.87;1723977;83;29571;-60
2021/11/05 08:30:55;;;;;;;5.80;3.30;;;;;;;11.01;62.52;99964.25;1723706;83;25786;-61
2021/11/05 08:33:22;;;;;;;4.78;3.20;;;;;;;11.42;61.37;99961.56;1723879;82;25720;-61
2021/11/05 08:35:52;;;;;;;9.75;3.85;;;;;;;11.77;62.03;99970.95;1722543;83;25788;-62
2021/11/05 08:38:22;;;;;;;5.40;4.12;;;;;;;12.48;61.52;99974.91;1714872;83;25711;-61
2021/11/05 08:40:54;;;;;;;6.50;3.90;;;;;;;12.46;56.81;99994.25;1714754;83;27362;-63
2021/11/05 08:43:24;;;;;;;5.35;4.10;;;;;;;12.03;56.84;99993.89;1714812;83;25628;-63
2021/11/05 08:45:52;;;;;;;8.00;4.58;;;;;;;11.67;58.37;99999.18;1722415;83;25838;-66
2021/11/05 08:48:19;;;;;;;5.17;4.15;;;;;;;11.39;58.45;100004.17;1723667;83;27779;-66
2021/11/05 08:50:47;;;;;;;5.12;3.58;;;;;;;11.07;59.48;100018.47;1723937;83;25683;-66
2021/11/05 08:53:15;;;;;;;5.03;3.58;;;;;;;10.76;59.41;100017.24;1723963;82;27428;-68
2021/11/05 08:55:42;;;;;;;4.45;3.30;;;;;;;10.47;60.43;100024.03;1723994;83;25769;-69
2021/11/05 08:58:08;;;;;;;4.45;3.65;;;;;;;10.20;60.64;100043.95;1724064;83;25627;-69
2021/11/05 09:00:36;;;;;;;5.67;3.90;;;;;;;9.99;61.43;100041.80;1724049;83;25703;-70
2021/11/05 09:03:05;;;;;;;5.03;3.42;;;;;;;9.88;62.20;100026.42;1723908;83;26364;-69
2021/11/05 09:05:35;;;;;;;5.40;3.87;;;;;;;9.81;62.83;100042.84;1724099;83;27404;-68
2021/11/05 09:08:01;;;;;;;5.35;4.10;;;;;;;9.81;62.98;100027.42;1724028;83;25744;-67
2021/11/05 09:10:28;;;;;;;5.03;3.95;;;;;;;9.76;62.98;100042.41;1723986;83;25739;-67
2021/11/05 09:12:56;;;;;;;6.75;3.92;;;;;;;9.70;63.53;100031.48;1723934;83;25771;-65
2021/11/05 09:15:27;;;;;;;5.95;4.72;;;;;;;9.66;63.22;100041.32;1723978;83;25749;-65
2021/11/05 09:17:58;;;;;;;5.72;4.22;;;;;;;9.64;63.21;100048.94;1723881;83;27364;-65
2021/11/05 09:20:24;;;;;;;10.05;4.40;;;;;;;9.61;63.70;100046.28;1724006;83;25655;-65
2021/11/05 09:22:51;;;;;;;8.00;4.37;;;;;;;9.66;64.32;100053.47;1723982;83;25876;-65
2021/11/05 09:25:18;;;;;;;6.67;3.62;;;;;;;9.70;63.55;100082.27;1724028;83;27788;-65
2021/11/05 09:27:46;;;;;;;6.75;4.72;;;;;;;9.78;63.94;100063.15;1723643;83;25758;-65
2021/11/05 09:30:14;;;;;;;5.10;4.03;;;;;;;9.81;63.61;100071.20;1723653;82;27344;-64
2021/11/05 09:32:42;;;;;;;7.08;4.95;;;;;;;9.81;63.87;100072.55;1722944;83;26237;-64
2021/11/05 09:35:09;;;;;;;6.15;4.50;;;;;;;9.76;63.45;100052.42;1723281;83;26303;-64
2021/11/05 09:37:38;;;;;;;7.53;4.03;;;;;;;9.67;63.47;100045.59;1723593;82;25618;-65
2021/11/05 09:40:10;;;;;;;9.63;4.08;;;;;;;9.60;63.42;100056.83;1723442;83;26102;-65
2021/11/05 09:42:37;;;;;;;5.65;4.50;;;;;;;9.53;63.77;100048.38;1723650;83;27306;-64
2021/11/05 09:45:05;;;;;;;6.12;3.80;;;;;;;9.48;63.81;100053.90;1723302;83;25564;-65
2021/11/05 09:47:32;;;;;;;5.45;4.10;;;;;;;9.43;64.41;100075.61;1718789;83;25718;-64
2021/11/05 09:49:58;;;;;;;6.33;4.28;;;;;;;9.35;64.45;100078.51;1712416;83;25695;-64
2021/11/05 09:52:26;;;;;;;5.72;4.20;;;;;;;9.29;64.50;100088.61;1714938;81;25786;-64
2021/11/05 09:54:56;;;;;;;6.20;4.25;;;;;;;9.24;64.85;100091.42;1754758;81;27461;-64
2021/11/05 09:57:22;;;;;;;7.05;4.42;;;;;;;9.18;64.96;100096.70;1755024;79;25607;-64
2021/11/05 09:59:49;;;;;;;5.55;3.98;;;;;;;9.11;65.15;100093.63;1755027;81;25836;-64
2021/11/05 10:02:15;;;;;;;6.72;4.35;;;;;;;9.05;65.24;100101.02;1754838;81;25737;-64
2021/11/05 10:04:44;;;;;;;5.60;4.10;;;;;;;9.01;65.28;100097.87;1754915;81;25604;-64
2021/11/05 10:07:12;;;;;;;8.75;4.62;;;;;;;8.98;65.79;100092.55;1755075;81;27311;-64
2021/11/05 10:09:44;;;;;;;9.85;4.22;;;;;;;8.93;66.14;100102.89;1754783;81;25720;-64
2021/11/05 10:12:16;;;;;;;7.72;4.65;;;;;;;8.91;66.09;100119.93;1754891;81;25689;-64
2021/11/05 10:14:46;;;;;;;6.20;4.72;;;;;;;8.90;65.99;100104.84;1754923;81;25629;-62
2021/11/05 10:17:16;;;;;;;5.05;3.98;;;;;;;8.87;66.20;100116.25;1754835;81;25629;-63
2021/11/05 10:19:54;;;;;;;8.85;4.90;;;;;;;8.85;66.69;100131.91;1754998;81;28264;-62
2021/11/05 10:22:52;;;;;;;11.85;4.90;;;;;;;8.84;66.55;100125.50;1760709;78;25666;-63
2021/11/05 10:25:44;;;;;;;7.15;4.25;;;;;;;8.84;66.84;100130.89;1759885;80;25712;-64
2021/11/05 10:28:25;;;;;;;5.40;4.08;;;;;;;8.82;66.77;100131.72;1754191;81;25724;-64
2021/11/05 10:31:05;;;;;;;7.03;4.92;;;;;;;8.83;67.03;100126.03;1759624;78;25902;-63
2021/11/05 10:33:46;;;;;;;6.40;4.62;;;;;;;8.82;67.17;100133.89;1765510;80;27308;-63
2021/11/05 10:36:20;;;;;;;8.30;4.40;;;;;;;8.83;66.98;100131.98;1775255;80;26343;-65
2021/11/05 10:38:59;;;;;;;7.70;4.53;;;;;;;8.84;67.16;100145.73;1763632;80;26211;-64
2021/11/05 10:41:29;;;;;;;11.05;5.67;;;;;;;8.83;67.11;100140.07;1755006;81;26271;-62
2021/11/05 10:43:59;;;;;;;7.37;4.80;;;;;;;8.84;67.46;100155.95;1754916;81;25599;-62
2021/11/05 10:46:34;;;;;;;8.00;5.05;;;;;;;8.82;67.18;100157.34;1755005;81;27464;-63
2021/11/05 10:49:05;;;;;;;8.68;5.35;;;;;;;8.83;67.86;100179.18;1753489;81;25674;-64
2021/11/05 10:51:34;;;;;;;7.40;5.10;;;;;;;8.83;67.68;100157.61;1754904;81;25653;-64
2021/11/05 10:54:03;;;;;;;9.15;5.33;;;;;;;8.85;67.53;100166.98;1754604;81;32444;-64
2021/11/05 10:56:31;;;;;;;6.03;4.65;;;;;;;8.86;67.96;100192.07;1754759;81;25728;-63
2021/11/05 10:59:05;;;;;;;10.30;5.08;;;;;;;8.91;67.45;100176.58;1754387;81;27330;-65
2021/11/05 11:01:39;;;;;;;5.83;4.60;;;;;;;8.97;67.60;100163.25;1752808;81;25387;-65
2021/11/05 11:04:10;;;;;;;6.30;4.72;;;;;;;9.00;67.65;100165.87;1754162;81;25331;-64
2021/11/05 11:06:49;;;;;;;6.47;4.75;;;;;;;9.00;67.27;100165.87;1754675;81;25629;-65
2021/11/05 11:09:19;;;;;;;;;;;;;;;9.01;67.54;100169.36;1757162;81;25804;-65
2021/11/05 11:11:50;;;;;;;6.47;4.90;;;;;;;9.03;67.72;100166.63;1754589;81;27402;-65
2021/11/05 11:14:20;;;;;;;7.20;5.28;;;;;;;9.06;67.57;100165.21;1754020;81;25722;-64
2021/11/05 11:16:51;;;;;;;8.30;5.87;;;;;;;9.04;67.51;100179.56;1754398;81;25595;-65
2021/11/05 11:19:22;;;;;;;8.80;4.95;;;;;;;9.01;67.47;100177.46;1753093;81;25584;-66
2021/11/05 11:22:02;;;;;;;6.85;5.30;;;;;;;8.99;67.50;100185.88;1754653;81;25680;-65
2021/11/05 11:24:32;;;;;;;7.92;4.95;;;;;;;8.94;67.72;100189.47;1754555;81;27233;-65
2021/11/05 11:27:03;;;;;;;11.38;5.30;;;;;;;8.90;67.56;100197.89;1754523;81;25702;-63
2021/11/05 11:29:30;;;;;;;7.05;4.83;;;;;;;8.90;68.20;100187.11;1772715;79;25579;-63
2021/11/05 11:32:00;;;;;;;6.22;5.00;;;;;;;8.89;68.21;100200.92;1815162;79;25697;-63
2021/11/05 11:34:28;;;;;;;6.15;4.78;;;;;;;8.90;68.37;100194.41;1815514;79;25654;-63
2021/11/05 11:37:02;;;;;;;5.58;4.75;;;;;;;8.92;68.33;100199.77;1815251;79;27308;-64
2021/11/05 11:39:32;;;;;;;5.05;3.77;;;;;;;8.97;68.75;100197.50;1815132;79;25382;-65
2021/11/05 11:42:06;;;;;;;9.83;3.70;;;;;;;9.02;68.69;100203.35;1815333;79;25633;-63